Overview Statistics Trail Chart Weather Telemetry Raw packets
 

This is the latest recevied weather packets stored in our database for station/object W2SBL-1. If no packets are shown the sender has not sent any weather packets the latest 10 day(s).

<< 1 2 3 4 >>
Time Temp. Humidity Pressure Rain* Wind** Luminosity Snow
1788623929 34.44° C 45% 1009.4 hPa - - - -
1788623029 34.44° C 44% 1009.5 hPa - - - -
1788622129 33.89° C 43% 1009.6 hPa - - - -
1788621229 18.89° C 46% 990 hPa - - - -
1788620328 27.78° C 52% 1009.4 hPa - - - -
1788619428 26.67° C 52% 1009.3 hPa - - - -
1788618528 26.11° C 52% 1009.3 hPa - - - -
1788617628 25.56° C 53% 1009.1 hPa - - - -
1788616728 25.56° C 53% 1009.2 hPa - - - -
1788615828 25.56° C 53% 1009.2 hPa - - - -
1788614928 25° C 54% 1009.4 hPa - - - -
1788614028 25° C 54% 1009.4 hPa - - - -
1788613128 24.44° C 54% 1009.7 hPa - - - -
1788612228 24.44° C 54% 1009.7 hPa - - - -
1788611328 23.89° C 55% 1009.7 hPa - - - -
1788610428 23.33° C 55% 1009.7 hPa - - - -
1788609527 23.33° C 55% 1009.8 hPa - - - -
1788608627 22.78° C 56% 1009.5 hPa - - - -
1788607727 22.78° C 57% 1009.3 hPa - - - -
1788606827 22.22° C 57% 1009.1 hPa - - - -
1788605927 22.22° C 57% 1009 hPa - - - -
1788605027 22.78° C 57% 1008.9 hPa - - - -
1788604127 22.78° C 57% 1008.8 hPa - - - -
1788603227 23.33° C 57% 1008.7 hPa - - - -
1788602327 23.33° C 56% 1008.8 hPa - - - -

* Rain since midnight (hover to see other rain measurements)
** Current wind speed in m/s (hover to see current wind gust speed)